createdAt,value
2019-01-27T00:00:39.211Z,98867.33
2019-01-27T00:03:10.704Z,98859.04
2019-01-27T00:05:47.373Z,98853.81
2019-01-27T00:08:18.754Z,98847.72
2019-01-27T00:10:50.353Z,98841.20
2019-01-27T00:13:21.646Z,98835.09
2019-01-27T00:15:53.216Z,98833.80
2019-01-27T00:18:24.661Z,98823.36
2019-01-27T00:20:56.096Z,98816.38
2019-01-27T00:23:27.457Z,98809.87
2019-01-27T00:25:58.942Z,98805.08
2019-01-27T00:28:30.404Z,98806.00
2019-01-27T00:31:01.880Z,98789.44
2019-01-27T00:33:33.354Z,98790.33
2019-01-27T00:36:04.999Z,98782.52
2019-01-27T00:38:36.359Z,98779.50
2019-01-27T00:41:07.849Z,98765.13
2019-01-27T00:43:39.278Z,98763.38
2019-01-27T00:46:10.627Z,98760.77
2019-01-27T00:48:42.046Z,98748.56
2019-01-27T00:51:13.423Z,98742.48
2019-01-27T00:53:44.709Z,98736.81
2019-01-27T00:56:15.977Z,98737.70
2019-01-27T00:58:47.403Z,98726.81
2019-01-27T01:01:18.837Z,98715.05
2019-01-27T01:03:50.193Z,98718.56
2019-01-27T01:06:21.620Z,98710.73
2019-01-27T01:08:53.058Z,98708.13
2019-01-27T01:11:24.474Z,98695.91
2019-01-27T01:13:55.826Z,98694.61
2019-01-27T01:16:27.202Z,98689.37
2019-01-27T01:18:58.479Z,98684.59
2019-01-27T01:21:29.834Z,98687.66
2019-01-27T01:24:01.199Z,98678.92
2019-01-27T01:26:32.679Z,98671.96
2019-01-27T01:29:03.975Z,98660.64
2019-01-27T01:31:35.452Z,98654.53
2019-01-27T01:34:07.197Z,98660.20
2019-01-27T01:36:38.500Z,98646.70
2019-01-27T01:39:10.053Z,98644.53
2019-01-27T01:41:41.404Z,98643.22
2019-01-27T01:44:12.734Z,98635.83
2019-01-27T01:46:44.155Z,98632.34
2019-01-27T01:49:15.385Z,98621.85
2019-01-27T01:51:46.693Z,98623.16
2019-01-27T01:54:17.916Z,98612.70
2019-01-27T01:56:49.185Z,98596.13
2019-01-27T01:59:22.159Z,98600.05
2019-01-27T02:01:53.585Z,98599.64
2019-01-27T02:04:24.805Z,98598.33
2019-01-27T02:06:56.186Z,98589.62
2019-01-27T02:09:28.439Z,98578.28
2019-01-27T02:11:59.777Z,98572.18
2019-01-27T02:14:31.075Z,98559.98
2019-01-27T02:17:03.209Z,98555.18
2019-01-27T02:19:34.594Z,98553.00
2019-01-27T02:22:06.114Z,98540.79
2019-01-27T02:24:37.339Z,98535.55
2019-01-27T02:27:08.604Z,98531.63
2019-01-27T02:29:39.969Z,98520.73
2019-01-27T02:32:11.377Z,98511.57
2019-01-27T02:34:42.780Z,98508.08
2019-01-27T02:37:14.364Z,98503.72
2019-01-27T02:39:45.575Z,98499.80
2019-01-27T02:42:17.130Z,98501.98
2019-01-27T02:44:48.431Z,98491.08
2019-01-27T02:47:19.721Z,98487.59
2019-01-27T02:49:50.927Z,98485.41
2019-01-27T02:52:22.211Z,98477.99
2019-01-27T02:54:53.590Z,98473.64
2019-01-27T02:57:24.864Z,98465.35
2019-01-27T02:59:56.084Z,98467.97
2019-01-27T03:02:27.421Z,98456.20
2019-01-27T03:05:00.487Z,98454.88
2019-01-27T03:07:36.515Z,98438.30
2019-01-27T03:10:15.125Z,98435.69
2019-01-27T03:12:46.555Z,98433.94
2019-01-27T03:15:18.814Z,98420.42
2019-01-27T03:17:50.292Z,98423.47
2019-01-27T03:20:21.583Z,98409.08
2019-01-27T03:22:53.122Z,98409.52
2019-01-27T03:25:24.557Z,98400.80
2019-01-27T03:27:55.991Z,98394.25
2019-01-27T03:30:27.237Z,98389.45
2019-01-27T03:32:58.577Z,98377.25
2019-01-27T03:35:30.147Z,98381.61
2019-01-27T03:38:01.576Z,98380.30
2019-01-27T03:40:32.867Z,98375.94
2019-01-27T03:43:04.452Z,98377.25
2019-01-27T03:45:36.048Z,98361.11
2019-01-27T03:48:10.694Z,98359.36
2019-01-27T03:50:48.961Z,98352.39
2019-01-27T03:53:22.176Z,98353.26
2019-01-27T03:59:28.435Z,98332.77
2019-01-27T04:02:18.127Z,98328.40
2019-01-27T04:09:23.152Z,98322.73
2019-01-27T04:11:59.559Z,98314.02
2019-01-27T04:17:47.373Z,98307.91
2019-01-27T04:56:46.610Z,98245.94
2019-01-27T05:06:47.260Z,98238.11
2019-01-27T05:19:32.303Z,98202.36
2019-01-27T05:29:47.434Z,98184.92
2019-01-27T05:35:57.722Z,98184.92
2019-01-27T05:41:44.173Z,98157.42
2019-01-27T05:44:54.314Z,98159.61
2019-01-27T05:47:41.584Z,98153.06
2019-01-27T05:50:34.249Z,98150.01
2019-01-27T05:53:29.583Z,98149.14
2019-01-27T05:59:19.499Z,98141.28
2019-01-27T06:02:06.816Z,98142.59
2019-01-27T06:04:43.214Z,98129.50
2019-01-27T06:07:22.000Z,98135.17
2019-01-27T06:09:59.859Z,98130.38
2019-01-27T06:12:42.596Z,98125.14
2019-01-27T06:15:19.958Z,98128.19
2019-01-27T06:18:01.138Z,98118.16
2019-01-27T06:21:17.054Z,98126.01
2019-01-27T06:24:02.166Z,98121.66
2019-01-27T06:26:41.938Z,98118.16
2019-01-27T06:29:23.519Z,98113.35
2019-01-27T06:32:14.343Z,98108.55
2019-01-27T06:34:46.460Z,98108.55
2019-01-27T06:37:30.555Z,98105.06
2019-01-27T06:40:16.561Z,98105.06
2019-01-27T06:43:02.819Z,98095.89
2019-01-27T06:45:39.684Z,98088.48
2019-01-27T06:48:13.089Z,98085.42
2019-01-27T06:50:44.720Z,98080.63
2019-01-27T06:53:33.804Z,98080.61
2019-01-27T06:56:11.808Z,98081.48
2019-01-27T06:59:06.689Z,98070.58
2019-01-27T07:02:57.818Z,98063.16
2019-01-27T07:05:28.751Z,98062.73
2019-01-27T07:12:24.312Z,98064.92
2019-01-27T07:21:35.404Z,98063.20
2019-01-27T07:24:16.424Z,98062.31
2019-01-27T07:27:05.926Z,98053.16
2019-01-27T07:30:42.784Z,98044.87
2019-01-27T07:33:43.262Z,98047.05
2019-01-27T07:40:59.847Z,98042.66
2019-01-27T07:43:52.723Z,98040.90
2019-01-27T07:51:36.378Z,98033.44
2019-01-27T07:54:03.702Z,98021.66
2019-01-27T07:56:38.926Z,98020.77
2019-01-27T08:31:33.225Z,98002.39
2019-01-27T09:30:47.468Z,97940.88
2019-01-27T09:33:43.172Z,97941.27
2019-01-27T09:36:51.775Z,97939.84
2019-01-27T09:39:48.217Z,97936.28
2019-01-27T09:43:07.472Z,97928.25
2019-01-27T09:46:05.482Z,97932.36
2019-01-27T09:49:00.318Z,97933.03
2019-01-27T09:51:43.142Z,97936.36
2019-01-27T09:54:36.198Z,97936.63
2019-01-27T09:57:21.211Z,97949.68
2019-01-27T09:59:54.427Z,97931.41
2019-01-27T10:02:34.831Z,97924.41
2019-01-27T10:05:16.843Z,97924.17
2019-01-27T10:07:52.963Z,97927.61
2019-01-27T10:10:26.044Z,97935.59
2019-01-27T10:13:16.527Z,97923.67
2019-01-27T10:16:04.741Z,97925.80
2019-01-27T10:18:52.996Z,97923.55
2019-01-27T10:30:38.458Z,97916.88
2019-01-27T10:33:09.866Z,97913.36
2019-01-27T10:35:45.826Z,97912.09
2019-01-27T10:38:21.899Z,97905.63
2019-01-27T10:41:05.177Z,97909.75
2019-01-27T10:43:47.721Z,97908.50
2019-01-27T10:46:23.656Z,97906.35
2019-01-27T10:48:56.823Z,97894.45
2019-01-27T10:51:36.019Z,97893.52
2019-01-27T10:54:09.632Z,97882.14
2019-01-27T10:56:56.615Z,97881.70
2019-01-27T10:59:38.516Z,97881.72
2019-01-27T11:02:16.017Z,97878.23
2019-01-27T11:04:56.845Z,97882.64
2019-01-27T11:07:36.244Z,97880.11
2019-01-27T11:10:18.010Z,97877.98
2019-01-27T11:12:58.643Z,97864.86
2019-01-27T11:15:33.443Z,97857.84
2019-01-27T11:18:12.872Z,97856.45
2019-01-27T11:20:53.352Z,97848.95
2019-01-27T11:23:30.350Z,97832.69
2019-01-27T11:26:12.950Z,97833.11
2019-01-27T11:29:09.242Z,97837.50
2019-01-27T11:31:51.943Z,97830.56
2019-01-27T11:34:26.787Z,97829.72
2019-01-27T11:37:07.883Z,97827.49
2019-01-27T11:50:32.550Z,97801.95
2019-01-27T11:53:10.176Z,97790.47
2019-01-27T11:55:41.661Z,97787.59
2019-01-27T11:58:13.306Z,97783.86
2019-01-27T12:00:46.634Z,97777.58
2019-01-27T12:03:18.036Z,97768.38
2019-01-27T12:05:49.711Z,97771.84
2019-01-27T12:08:21.263Z,97764.41
2019-01-27T12:10:52.916Z,97771.40
2019-01-27T12:13:24.704Z,97764.80
2019-01-27T12:15:56.065Z,97765.12
2019-01-27T12:18:27.606Z,97763.74
2019-01-27T12:21:00.796Z,97752.81
2019-01-27T12:23:32.352Z,97752.75
2019-01-27T12:26:03.895Z,97742.87
2019-01-27T12:28:35.428Z,97753.25
2019-01-27T12:31:06.891Z,97746.06
2019-01-27T12:33:38.381Z,97742.78
2019-01-27T12:36:09.889Z,97747.00
2019-01-27T12:38:41.361Z,97735.95
2019-01-27T12:41:13.037Z,97746.41
2019-01-27T12:43:44.644Z,97749.11
2019-01-27T12:46:16.384Z,97728.97
2019-01-27T12:48:47.939Z,97737.72
2019-01-27T12:51:21.041Z,97739.59
2019-01-27T12:53:52.443Z,97732.64
2019-01-27T12:56:23.962Z,97733.67
2019-01-27T12:58:55.609Z,97733.30
2019-01-27T13:01:27.205Z,97731.59
2019-01-27T13:03:58.890Z,97725.02
2019-01-27T13:06:31.938Z,97723.30
2019-01-27T13:09:08.465Z,97714.89
2019-01-27T13:11:40.155Z,97712.70
2019-01-27T13:14:17.793Z,97711.84
2019-01-27T13:16:55.937Z,97705.30
2019-01-27T13:19:27.399Z,97706.69
2019-01-27T13:21:58.727Z,97698.00
2019-01-27T13:24:30.215Z,97698.97
2019-01-27T13:27:06.319Z,97696.83
2019-01-27T13:29:37.851Z,97693.84
2019-01-27T13:32:09.438Z,97700.00
2019-01-27T13:34:42.028Z,97694.75
2019-01-27T13:37:13.840Z,97696.55
2019-01-27T13:42:45.619Z,97687.80
2019-01-27T13:45:31.208Z,97691.67
2019-01-27T13:48:09.091Z,97690.73
2019-01-27T13:50:44.563Z,97692.53
2019-01-27T13:53:18.519Z,97685.13
2019-01-27T13:55:56.226Z,97677.59
2019-01-27T13:58:30.130Z,97682.36
2019-01-27T14:01:03.641Z,97674.82
2019-01-27T14:03:35.370Z,97675.17
2019-01-27T14:06:07.128Z,97671.67
2019-01-27T14:08:38.860Z,97673.41
2019-01-27T14:11:10.491Z,97660.22
2019-01-27T14:13:41.896Z,97678.97
2019-01-27T14:16:13.451Z,97673.74
2019-01-27T14:18:44.777Z,97676.03
2019-01-27T14:21:16.830Z,97667.66
2019-01-27T14:23:48.667Z,97669.34
2019-01-27T14:26:20.238Z,97663.56
2019-01-27T14:28:51.758Z,97663.08
2019-01-27T14:31:25.876Z,97660.94
2019-01-27T14:33:58.851Z,97667.06
2019-01-27T14:36:37.395Z,97669.73
2019-01-27T14:39:26.878Z,97664.47
2019-01-27T14:42:00.575Z,97669.31
2019-01-27T14:44:35.314Z,97672.39
2019-01-27T14:47:15.313Z,97673.30
2019-01-27T14:49:47.329Z,97672.88
2019-01-27T14:52:20.515Z,97671.60
2019-01-27T14:54:54.753Z,97669.84
2019-01-27T14:57:27.988Z,97669.84
2019-01-27T15:00:01.058Z,97670.36
2019-01-27T15:02:37.395Z,97673.85
2019-01-27T15:05:16.264Z,97669.11
2019-01-27T15:08:03.358Z,97669.67
2019-01-27T15:10:48.331Z,97669.70
2019-01-27T15:13:24.077Z,97664.48
2019-01-27T15:16:26.414Z,97661.95
2019-01-27T15:19:10.467Z,97658.95
2019-01-27T15:21:46.404Z,97664.30
2019-01-27T15:24:20.650Z,97666.17
2019-01-27T15:26:55.326Z,97666.79
2019-01-27T15:29:27.764Z,97668.66
2019-01-27T15:31:59.393Z,97667.44
2019-01-27T15:34:32.610Z,97662.70
2019-01-27T15:40:15.326Z,97666.28
2019-01-27T15:42:47.205Z,97662.80
2019-01-27T15:45:32.309Z,97665.03
2019-01-27T15:48:04.109Z,97658.47
2019-01-27T15:50:39.855Z,97662.44
2019-01-27T15:53:33.099Z,97660.74
2019-01-27T15:56:49.196Z,97657.28
2019-01-27T16:05:35.696Z,97671.09
2019-01-27T16:08:09.041Z,97677.80
2019-01-27T16:15:30.118Z,97684.04
2019-01-27T16:17:19.815Z,97685.50
2019-01-27T16:19:51.508Z,97668.08
2019-01-27T16:22:23.162Z,97669.78
2019-01-27T16:24:54.861Z,97675.50
2019-01-27T16:27:32.762Z,97674.28
2019-01-27T16:30:09.025Z,97669.09
2019-01-27T16:32:41.804Z,97672.64
2019-01-27T16:35:17.145Z,97671.80
2019-01-27T16:37:50.435Z,97675.73
2019-01-27T16:40:23.910Z,97684.92
2019-01-27T16:43:04.670Z,97676.21
2019-01-27T16:45:42.559Z,97675.34
2019-01-27T16:48:27.362Z,97669.65
2019-01-27T16:51:00.643Z,97671.88
2019-01-27T16:53:41.233Z,97672.39
2019-01-27T16:56:12.876Z,97669.84
2019-01-27T16:58:44.519Z,97671.23
2019-01-27T17:01:17.734Z,97675.20
2019-01-27T17:03:52.110Z,97675.70
2019-01-27T17:06:24.915Z,97677.13
2019-01-27T17:08:59.840Z,97677.23
2019-01-27T17:11:31.678Z,97670.30
2019-01-27T17:14:05.110Z,97675.19
2019-01-27T17:16:38.522Z,97673.48
2019-01-27T17:19:12.141Z,97677.44
2019-01-27T17:21:50.811Z,97677.94
2019-01-27T17:24:49.684Z,97674.49
2019-01-27T17:27:25.629Z,97679.39
2019-01-27T17:30:02.662Z,97679.86
2019-01-27T17:32:44.925Z,97684.78
2019-01-27T17:35:26.345Z,97694.89
2019-01-27T17:38:02.523Z,97689.70
2019-01-27T17:40:58.101Z,97694.08
2019-01-27T17:43:39.423Z,97707.23
2019-01-27T17:46:07.073Z,97709.05
2019-01-27T17:48:39.263Z,97707.37
2019-01-27T17:51:13.590Z,97714.39
2019-01-27T17:53:50.807Z,97718.31
2019-01-27T17:56:24.151Z,97727.06
2019-01-27T17:59:11.156Z,97731.02
2019-01-27T18:01:50.572Z,97732.35
2019-01-27T18:07:44.708Z,97746.81
2019-01-27T18:10:29.023Z,97754.30
2019-01-27T18:13:07.406Z,97753.02
2019-01-27T18:15:43.735Z,97753.92
2019-01-27T18:18:36.371Z,97759.61
2019-01-27T18:21:02.591Z,97762.25
2019-01-27T18:23:44.965Z,97768.80
2019-01-27T18:26:50.659Z,97771.86
2019-01-27T18:29:22.287Z,97774.91
2019-01-27T18:31:58.382Z,97787.12
2019-01-27T18:34:50.250Z,97780.57
2019-01-27T18:37:44.520Z,97788.43
2019-01-27T18:40:50.223Z,97804.13
2019-01-27T18:43:23.008Z,97813.30
2019-01-27T18:46:02.123Z,97818.51
2019-01-27T18:48:36.369Z,97832.03
2019-01-27T18:54:11.064Z,97844.20
2019-01-27T18:56:54.394Z,97851.16
2019-01-27T18:59:45.498Z,97852.45
2019-01-27T19:02:34.926Z,97862.92
2019-01-27T19:05:29.363Z,97867.71
2019-01-27T19:08:19.896Z,97873.39
2019-01-27T19:11:05.385Z,97889.53
2019-01-27T19:13:34.724Z,97900.41
2019-01-27T19:16:16.312Z,97912.20
2019-01-27T19:19:00.335Z,97908.27
2019-01-27T19:21:40.334Z,97921.88
2019-01-27T19:24:16.249Z,97931.53
2019-01-27T19:27:14.243Z,97934.64
2019-01-27T19:30:04.415Z,97945.62
2019-01-27T19:32:45.102Z,97945.68
2019-01-27T19:35:18.463Z,97949.24
2019-01-27T19:37:59.218Z,97952.31
2019-01-27T19:40:30.732Z,97960.23
2019-01-27T19:43:09.930Z,97970.73
2019-01-27T19:45:57.004Z,97976.01
2019-01-27T19:48:45.491Z,97989.98
2019-01-27T19:51:42.992Z,97999.17
2019-01-27T19:54:19.517Z,98005.75
2019-01-27T19:57:04.470Z,98015.39
2019-01-27T19:59:48.621Z,98015.40
2019-01-27T20:02:21.960Z,98024.17
2019-01-27T20:04:56.623Z,98032.05
2019-01-27T20:07:47.614Z,98045.19
2019-01-27T20:10:27.095Z,98050.91
2019-01-27T20:13:08.738Z,98064.05
2019-01-27T20:15:41.499Z,98072.80
2019-01-27T20:18:19.822Z,98088.96
2019-01-27T20:21:04.416Z,98092.03
2019-01-27T20:23:52.774Z,98104.72
2019-01-27T20:26:26.067Z,98093.86
2019-01-27T20:29:04.871Z,98096.06
2019-01-27T20:31:41.236Z,98106.09
2019-01-27T20:34:15.804Z,98110.46
2019-01-27T20:36:47.400Z,98121.80
2019-01-27T20:39:26.314Z,98112.22
2019-01-27T20:41:59.661Z,98110.05
2019-01-27T20:44:35.751Z,98118.77
2019-01-27T20:47:10.199Z,98121.38
2019-01-27T20:49:49.173Z,98125.27
2019-01-27T20:52:25.459Z,98132.69
2019-01-27T20:55:01.420Z,98130.95
2019-01-27T20:57:38.526Z,98135.74
2019-01-27T21:00:24.234Z,98144.89
2019-01-27T21:03:01.228Z,98145.77
2019-01-27T21:05:40.451Z,98152.73
2019-01-27T21:08:19.627Z,98165.37
2019-01-27T21:10:52.932Z,98167.98
2019-01-27T21:13:26.361Z,98170.16
2019-01-27T21:16:11.641Z,98198.45
2019-01-27T21:18:44.742Z,98178.42
2019-01-27T21:21:16.425Z,98184.08
2019-01-27T21:23:48.005Z,98188.42
2019-01-27T21:26:19.793Z,98203.66
2019-01-27T21:29:24.157Z,98198.86
2019-01-27T21:31:57.192Z,98211.05
2019-01-27T21:34:29.243Z,98218.44
2019-01-27T21:37:00.754Z,98231.49
2019-01-27T21:39:32.453Z,98237.14
2019-01-27T21:42:04.071Z,98224.95
2019-01-27T21:44:35.874Z,98231.47
2019-01-27T21:47:07.233Z,98237.98
2019-01-27T21:49:38.884Z,98246.68
2019-01-27T21:52:10.419Z,98250.59
2019-01-27T21:54:41.964Z,98251.46
2019-01-27T21:57:13.406Z,98257.56
2019-01-27T21:59:45.139Z,98275.82
2019-01-27T22:02:16.665Z,98272.77
2019-01-27T22:04:54.338Z,98277.58
2019-01-27T22:07:25.743Z,98282.37
2019-01-27T22:09:57.191Z,98298.05
2019-01-27T22:12:28.623Z,98302.84
2019-01-27T22:15:00.240Z,98301.11
2019-01-27T22:17:31.849Z,98298.06
2019-01-27T22:20:03.539Z,98287.20
2019-01-27T22:22:41.562Z,98308.55
2019-01-27T22:25:19.312Z,98301.61
2019-01-27T22:27:52.492Z,98304.21
2019-01-27T22:30:24.365Z,98305.08
2019-01-27T22:32:56.022Z,98308.99
2019-01-27T22:35:27.625Z,98312.93
2019-01-27T22:37:59.408Z,98315.55
2019-01-27T22:40:30.883Z,98314.67
2019-01-27T22:43:02.421Z,98325.56
2019-01-27T22:45:34.007Z,98319.03
2019-01-27T22:48:05.398Z,98312.95
2019-01-27T22:50:36.930Z,98312.50
2019-01-27T22:53:08.625Z,98312.94
2019-01-27T22:55:40.158Z,98316.42
2019-01-27T22:58:11.504Z,98315.54
2019-01-27T23:00:52.172Z,98321.64
2019-01-27T23:03:24.699Z,98325.13
2019-01-27T23:05:56.229Z,98316.39
2019-01-27T23:08:27.622Z,98332.06
2019-01-27T23:10:59.098Z,98332.05
2019-01-27T23:13:30.582Z,98333.36
2019-01-27T23:16:02.344Z,98348.16
2019-01-27T23:18:33.818Z,98348.15
2019-01-27T23:21:05.761Z,98344.66
2019-01-27T23:23:37.238Z,98347.28
2019-01-27T23:26:08.924Z,98345.12
2019-01-27T23:28:40.524Z,98342.94
2019-01-27T23:31:12.340Z,98336.84
2019-01-27T23:33:43.987Z,98351.19
2019-01-27T23:36:15.673Z,98351.64
2019-01-27T23:38:47.061Z,98359.91
2019-01-27T23:41:18.467Z,98364.66
2019-01-27T23:43:49.909Z,98354.62
2019-01-27T23:46:21.506Z,98361.56
2019-01-27T23:48:52.900Z,98371.55
2019-01-27T23:51:24.309Z,98379.39
2019-01-27T23:53:55.824Z,98380.29
2019-01-27T23:56:27.372Z,98383.32
2019-01-27T23:58:59.026Z,98385.48
